createdAt,value
2019-03-10T00:00:47.365Z,7.03
2019-03-10T00:03:19.322Z,7.02
2019-03-10T00:05:51.416Z,7.04
2019-03-10T00:08:23.378Z,7.03
2019-03-10T00:10:55.654Z,7.03
2019-03-10T00:13:27.607Z,7.05
2019-03-10T00:15:59.577Z,7.06
2019-03-10T00:18:31.522Z,7.09
2019-03-10T00:21:03.515Z,7.08
2019-03-10T00:23:35.770Z,7.08
2019-03-10T00:26:07.751Z,7.08
2019-03-10T00:28:39.770Z,7.10
2019-03-10T00:31:11.710Z,7.12
2019-03-10T00:33:44.037Z,7.12
2019-03-10T00:36:16.050Z,7.12
2019-03-10T00:39:07.818Z,7.11
2019-03-10T00:42:03.756Z,7.11
2019-03-10T00:45:12.136Z,7.08
2019-03-10T00:48:03.371Z,7.05
2019-03-10T00:51:01.160Z,7.06
2019-03-10T00:53:33.122Z,7.06
2019-03-10T00:56:05.072Z,7.07
2019-03-10T00:58:37.027Z,7.10
2019-03-10T01:01:09.172Z,7.13
2019-03-10T01:03:42.312Z,7.18
2019-03-10T01:06:14.527Z,7.22
2019-03-10T01:08:46.856Z,7.24
2019-03-10T01:11:19.344Z,7.27
2019-03-10T01:13:51.308Z,7.30
2019-03-10T01:16:24.247Z,7.33
2019-03-10T01:18:57.279Z,7.37
2019-03-10T01:21:32.142Z,7.40
2019-03-10T01:24:04.221Z,7.44
2019-03-10T01:26:36.199Z,7.47
2019-03-10T01:29:08.161Z,7.48
2019-03-10T01:32:02.680Z,7.49
2019-03-10T01:34:45.178Z,7.51
2019-03-10T01:37:17.502Z,7.51
2019-03-10T01:39:49.898Z,7.51
2019-03-10T01:42:21.951Z,7.53
2019-03-10T01:44:53.926Z,7.55
2019-03-10T01:47:25.950Z,7.58
2019-03-10T01:49:58.083Z,7.59
2019-03-10T01:52:30.507Z,7.61
2019-03-10T01:55:02.752Z,7.63
2019-03-10T01:57:34.771Z,7.63
2019-03-10T02:00:11.936Z,7.65
2019-03-10T02:02:44.076Z,7.68
2019-03-10T02:05:16.059Z,7.71
2019-03-10T02:07:47.994Z,7.72
2019-03-10T02:10:20.022Z,7.72
2019-03-10T02:12:51.968Z,7.74
2019-03-10T02:15:23.925Z,7.72
2019-03-10T02:17:55.885Z,7.71
2019-03-10T02:20:28.116Z,7.72
2019-03-10T02:23:00.068Z,7.71
2019-03-10T02:25:32.213Z,7.67
2019-03-10T02:28:04.156Z,7.65
2019-03-10T02:30:36.124Z,7.63
2019-03-10T02:33:08.066Z,7.63
2019-03-10T02:35:40.055Z,7.62
2019-03-10T02:38:12.291Z,7.63
2019-03-10T02:40:44.269Z,7.63
2019-03-10T02:43:16.215Z,7.64
2019-03-10T02:45:48.179Z,7.65
2019-03-10T02:48:20.137Z,7.67
2019-03-10T02:50:52.104Z,7.69
2019-03-10T02:53:24.365Z,7.71
2019-03-10T02:55:56.314Z,7.75
2019-03-10T02:58:28.262Z,7.78
2019-03-10T03:01:00.213Z,7.77
2019-03-10T03:03:32.203Z,7.78
2019-03-10T03:06:04.156Z,7.80
2019-03-10T03:08:36.105Z,7.84
2019-03-10T03:11:08.069Z,7.84
2019-03-10T03:13:40.019Z,7.85
2019-03-10T03:16:12.007Z,7.85
2019-03-10T03:18:43.958Z,7.85
2019-03-10T03:21:15.920Z,7.83
2019-03-10T03:23:48.038Z,7.78
2019-03-10T03:26:19.994Z,7.77
2019-03-10T03:28:51.940Z,7.74
2019-03-10T03:31:24.230Z,7.70
2019-03-10T03:33:56.269Z,7.68
2019-03-10T03:36:31.840Z,7.66
2019-03-10T03:39:11.644Z,7.64
2019-03-10T03:41:43.611Z,7.62
2019-03-10T03:44:15.575Z,7.63
2019-03-10T03:46:47.573Z,7.62
2019-03-10T03:49:19.532Z,7.63
2019-03-10T03:51:51.828Z,7.64
2019-03-10T03:54:23.779Z,7.65
2019-03-10T03:56:55.766Z,7.67
2019-03-10T03:59:27.813Z,7.67
2019-03-10T04:02:01.401Z,7.69
2019-03-10T04:04:33.365Z,7.69
2019-03-10T04:07:05.334Z,7.70
2019-03-10T04:09:37.302Z,7.71
2019-03-10T04:12:09.271Z,7.71
2019-03-10T04:14:41.225Z,7.72
2019-03-10T04:17:13.254Z,7.70
2019-03-10T04:19:45.331Z,7.69
2019-03-10T04:22:17.272Z,7.66
2019-03-10T04:24:49.238Z,7.64
2019-03-10T04:27:21.458Z,7.62
2019-03-10T04:29:53.753Z,7.60
2019-03-10T04:32:26.004Z,7.60
2019-03-10T04:34:57.963Z,7.60
2019-03-10T04:37:29.978Z,7.59
2019-03-10T04:40:01.938Z,7.58
2019-03-10T04:42:33.924Z,7.60
2019-03-10T04:45:07.654Z,7.60
2019-03-10T04:47:39.646Z,7.59
2019-03-10T04:50:11.715Z,7.56
2019-03-10T04:52:43.695Z,7.53
2019-03-10T04:55:20.536Z,7.50
2019-03-10T04:58:03.459Z,7.48
2019-03-10T05:00:37.044Z,7.48
2019-03-10T05:03:09.007Z,7.49
2019-03-10T05:05:40.978Z,7.52
2019-03-10T05:08:12.973Z,7.54
2019-03-10T05:10:46.346Z,7.56
2019-03-10T05:13:18.620Z,7.59
2019-03-10T05:15:50.563Z,7.60
2019-03-10T05:18:22.847Z,7.62
2019-03-10T05:20:54.798Z,7.65
2019-03-10T05:23:41.137Z,7.65
2019-03-10T05:26:13.108Z,7.64
2019-03-10T05:28:45.974Z,7.64
2019-03-10T05:31:17.930Z,7.58
2019-03-10T05:33:49.903Z,7.44
2019-03-10T05:36:21.906Z,7.31
2019-03-10T05:38:53.864Z,7.14
2019-03-10T05:41:25.797Z,7.05
2019-03-10T05:43:58.845Z,7.02
2019-03-10T05:46:31.027Z,7.02
2019-03-10T05:49:03.024Z,7.03
2019-03-10T05:51:35.006Z,7.03
2019-03-10T05:54:06.950Z,7.05
2019-03-10T05:56:38.901Z,7.03
2019-03-10T05:59:10.869Z,7.04
2019-03-10T06:01:42.982Z,7.03
2019-03-10T06:04:15.415Z,7.02
2019-03-10T06:06:47.380Z,7.05
2019-03-10T06:09:19.357Z,7.08
2019-03-10T06:11:51.371Z,7.11
2019-03-10T06:14:23.335Z,7.13
2019-03-10T06:16:55.315Z,7.15
2019-03-10T06:19:27.359Z,7.13
2019-03-10T06:21:59.391Z,7.15
2019-03-10T06:24:31.364Z,7.16
2019-03-10T06:27:03.709Z,7.17
2019-03-10T06:29:35.652Z,7.19
2019-03-10T06:32:07.632Z,7.19
2019-03-10T06:34:39.719Z,7.19
2019-03-10T06:37:11.698Z,7.20
2019-03-10T06:39:43.729Z,7.22
2019-03-10T06:42:15.728Z,7.22
2019-03-10T06:44:47.899Z,7.22
2019-03-10T06:47:19.849Z,7.22
2019-03-10T06:49:51.815Z,7.25
2019-03-10T06:52:23.779Z,7.28
2019-03-10T06:54:55.745Z,7.27
2019-03-10T06:57:27.693Z,7.29
2019-03-10T06:59:59.656Z,7.30
2019-03-10T07:02:31.613Z,7.31
2019-03-10T07:05:03.626Z,7.34
2019-03-10T07:07:35.623Z,7.33
2019-03-10T07:10:16.205Z,7.31
2019-03-10T07:12:48.159Z,7.33
2019-03-10T07:15:20.193Z,7.36
2019-03-10T07:17:52.165Z,7.40
2019-03-10T07:20:24.135Z,7.45
2019-03-10T07:22:56.096Z,7.49
2019-03-10T07:25:28.078Z,7.52
2019-03-10T07:28:02.004Z,7.55
2019-03-10T07:30:41.759Z,7.56
2019-03-10T07:33:15.383Z,7.57
2019-03-10T07:35:57.878Z,7.60
2019-03-10T07:38:34.365Z,7.66
2019-03-10T07:41:23.803Z,7.73
2019-03-10T07:44:00.161Z,7.80
2019-03-10T07:46:33.778Z,7.86
2019-03-10T07:49:24.061Z,7.92
2019-03-10T07:52:20.105Z,7.98
2019-03-10T07:55:09.871Z,8.03
2019-03-10T07:57:43.883Z,8.07
2019-03-10T08:00:20.299Z,8.12
2019-03-10T08:02:57.015Z,8.18
2019-03-10T08:05:36.491Z,8.24
2019-03-10T08:08:10.101Z,8.25
2019-03-10T08:10:49.811Z,8.26
2019-03-10T08:13:26.119Z,8.28
2019-03-10T08:16:02.636Z,8.30
2019-03-10T08:18:41.779Z,8.32
2019-03-10T08:21:15.392Z,8.37
2019-03-10T08:23:54.662Z,8.40
2019-03-10T08:26:44.952Z,8.44
2019-03-10T08:29:24.514Z,8.48
2019-03-10T08:32:00.958Z,8.51
2019-03-10T08:34:47.419Z,8.53
2019-03-10T08:37:23.847Z,8.54
2019-03-10T08:40:00.427Z,8.56
2019-03-10T08:42:37.135Z,8.60
2019-03-10T08:45:13.961Z,8.66
2019-03-10T08:47:47.567Z,8.66
2019-03-10T08:50:33.257Z,8.64
2019-03-10T08:53:15.815Z,8.64
2019-03-10T08:55:49.497Z,8.62
2019-03-10T08:58:35.115Z,8.58
2019-03-10T09:01:23.638Z,8.57
2019-03-10T09:04:06.238Z,8.59
2019-03-10T09:06:44.633Z,8.64
2019-03-10T09:09:23.997Z,8.65
2019-03-10T09:11:57.609Z,8.69
2019-03-10T09:14:40.123Z,8.76
2019-03-10T09:17:13.794Z,8.84
2019-03-10T09:20:03.595Z,8.89
2019-03-10T09:22:42.928Z,8.92
2019-03-10T09:25:22.975Z,8.92
2019-03-10T09:27:59.486Z,8.89
2019-03-10T09:30:45.403Z,8.86
2019-03-10T09:33:28.080Z,8.84
2019-03-10T09:36:01.778Z,8.83
2019-03-10T09:38:38.709Z,8.82
2019-03-10T09:41:14.959Z,8.81
2019-03-10T09:43:48.630Z,8.80
2019-03-10T09:46:33.951Z,8.81
2019-03-10T09:49:10.203Z,8.83
2019-03-10T09:51:43.861Z,8.84
2019-03-10T09:54:23.457Z,8.89
2019-03-10T09:57:09.624Z,8.91
2019-03-10T09:59:46.132Z,8.94
2019-03-10T10:02:28.854Z,8.97
2019-03-10T10:05:05.563Z,9.00
2019-03-10T10:07:54.457Z,8.97
2019-03-10T10:10:28.045Z,9.07
2019-03-10T10:13:17.813Z,9.11
2019-03-10T10:16:03.428Z,9.14
2019-03-10T10:18:37.016Z,9.15
2019-03-10T10:21:16.494Z,9.19
2019-03-10T10:23:50.079Z,9.23
2019-03-10T10:26:32.638Z,9.26
2019-03-10T10:29:09.257Z,9.28
2019-03-10T10:31:51.628Z,9.34
2019-03-10T10:34:27.894Z,9.40
2019-03-10T10:37:01.574Z,9.47
2019-03-10T10:39:44.008Z,9.51
2019-03-10T10:42:26.599Z,9.58
2019-03-10T10:45:00.357Z,9.68
2019-03-10T10:47:36.674Z,9.72
2019-03-10T10:50:28.896Z,9.71
2019-03-10T10:53:05.449Z,9.65
2019-03-10T10:55:48.165Z,9.62
2019-03-10T10:58:39.717Z,9.59
2019-03-10T11:01:25.179Z,9.61
2019-03-10T11:03:58.761Z,9.62
2019-03-10T11:06:47.348Z,9.62
2019-03-10T11:09:20.969Z,9.61
2019-03-10T11:12:03.514Z,9.62
2019-03-10T11:14:42.815Z,9.61
2019-03-10T11:17:25.112Z,9.62
2019-03-10T11:20:07.611Z,9.65
2019-03-10T11:22:57.652Z,9.73
2019-03-10T11:25:34.598Z,9.78
2019-03-10T11:28:14.091Z,9.83
2019-03-10T11:30:47.768Z,9.91
2019-03-10T11:33:21.378Z,9.97
2019-03-10T11:36:13.448Z,10.01
2019-03-10T11:38:47.047Z,10.05
2019-03-10T11:41:20.919Z,10.08
2019-03-10T11:43:54.525Z,10.10
2019-03-10T11:46:28.383Z,10.16
2019-03-10T11:49:13.845Z,10.23
2019-03-10T11:52:05.593Z,10.28
2019-03-10T11:54:39.209Z,10.34
2019-03-10T11:57:15.420Z,10.38
2019-03-10T11:59:49.009Z,10.38
2019-03-10T12:02:28.587Z,10.43
2019-03-10T12:05:18.238Z,10.51
2019-03-10T12:07:54.574Z,10.57
2019-03-10T12:10:26.540Z,10.62
2019-03-10T12:12:59.109Z,10.69
2019-03-10T12:15:31.252Z,10.75
2019-03-10T12:18:03.276Z,10.79
2019-03-10T12:20:35.543Z,10.85
2019-03-10T12:23:07.490Z,10.90
2019-03-10T12:25:39.470Z,10.90
2019-03-10T12:28:11.430Z,10.93
2019-03-10T12:30:43.702Z,10.95
2019-03-10T12:33:15.668Z,11.00
2019-03-10T12:35:48.147Z,11.03
2019-03-10T12:38:20.153Z,11.05
2019-03-10T12:40:52.886Z,11.06
2019-03-10T12:43:24.857Z,11.09
2019-03-10T12:45:56.821Z,11.11
2019-03-10T12:48:28.795Z,11.11
2019-03-10T12:51:00.890Z,11.13
2019-03-10T12:53:32.858Z,11.09
2019-03-10T12:56:04.814Z,11.05
2019-03-10T12:58:36.828Z,11.03
2019-03-10T13:01:09.118Z,11.02
2019-03-10T13:03:41.171Z,11.00
2019-03-10T13:06:13.229Z,11.00
2019-03-10T13:08:45.225Z,11.01
2019-03-10T13:11:17.206Z,11.00
2019-03-10T13:13:49.199Z,10.99
2019-03-10T13:16:21.151Z,11.01
2019-03-10T13:18:53.114Z,11.02
2019-03-10T13:21:26.125Z,11.06
2019-03-10T13:23:58.474Z,11.10
2019-03-10T13:26:30.424Z,11.12
2019-03-10T13:29:02.417Z,11.11
2019-03-10T13:31:34.789Z,11.09
2019-03-10T13:34:07.096Z,11.05
2019-03-10T13:36:39.018Z,10.99
2019-03-10T13:39:11.037Z,10.94
2019-03-10T13:41:42.989Z,10.92
2019-03-10T13:44:15.008Z,10.91
2019-03-10T13:46:46.988Z,10.93
2019-03-10T13:49:19.034Z,10.94
2019-03-10T13:51:50.978Z,10.92
2019-03-10T13:54:22.937Z,10.90
2019-03-10T13:56:55.188Z,10.88
2019-03-10T13:59:27.116Z,10.87
2019-03-10T14:01:59.098Z,10.86
2019-03-10T14:04:31.052Z,10.85
2019-03-10T14:07:03.321Z,10.82
2019-03-10T14:09:35.260Z,10.79
2019-03-10T14:12:07.243Z,10.77
2019-03-10T14:14:39.367Z,10.72
2019-03-10T14:17:11.291Z,10.72
2019-03-10T14:19:43.566Z,10.68
2019-03-10T14:22:15.525Z,10.65
2019-03-10T14:24:47.489Z,10.62
2019-03-10T14:27:19.988Z,10.55
2019-03-10T14:29:51.905Z,10.50
2019-03-10T14:32:23.942Z,10.47
2019-03-10T14:34:55.885Z,10.49
2019-03-10T14:37:27.922Z,10.48
2019-03-10T14:39:59.892Z,10.50
2019-03-10T14:42:32.290Z,10.49
2019-03-10T14:45:09.429Z,10.48
2019-03-10T14:47:41.416Z,10.47
2019-03-10T14:50:18.963Z,10.44
2019-03-10T14:52:50.976Z,10.37
2019-03-10T14:55:23.855Z,10.26
2019-03-10T14:57:55.871Z,10.16
2019-03-10T15:00:32.192Z,10.08
2019-03-10T15:03:04.112Z,9.98
2019-03-10T15:05:36.097Z,9.85
2019-03-10T15:08:08.026Z,9.78
2019-03-10T15:10:40.006Z,9.77
2019-03-10T15:13:11.958Z,9.77
2019-03-10T15:15:43.933Z,9.75
2019-03-10T15:18:15.875Z,9.71
2019-03-10T15:20:47.888Z,9.72
2019-03-10T15:23:19.867Z,9.74
2019-03-10T15:25:51.835Z,9.75
2019-03-10T15:28:23.787Z,9.76
2019-03-10T15:30:55.722Z,9.78
2019-03-10T15:33:27.679Z,9.76
2019-03-10T15:36:00.097Z,9.71
2019-03-10T15:38:32.053Z,9.67
2019-03-10T15:41:03.997Z,9.62
2019-03-10T15:43:36.262Z,9.56
2019-03-10T15:46:08.535Z,9.53
2019-03-10T15:48:40.504Z,9.44
2019-03-10T15:51:12.468Z,9.37
2019-03-10T15:53:44.418Z,9.37
2019-03-10T15:56:16.381Z,9.36
2019-03-10T15:58:48.325Z,9.35
2019-03-10T16:01:20.417Z,9.37
2019-03-10T16:03:52.372Z,9.41
2019-03-10T16:06:24.399Z,9.46
2019-03-10T16:08:56.345Z,9.46
2019-03-10T16:11:28.305Z,9.49
2019-03-10T16:14:00.244Z,9.50
2019-03-10T16:16:32.230Z,9.47
2019-03-10T16:19:04.848Z,9.43
2019-03-10T16:21:36.809Z,9.37
2019-03-10T16:24:09.133Z,9.33
2019-03-10T16:26:41.069Z,9.29
2019-03-10T16:29:13.031Z,9.26
2019-03-10T16:31:44.973Z,9.22
2019-03-10T16:34:16.942Z,9.15
2019-03-10T16:36:48.878Z,9.13
2019-03-10T16:39:20.872Z,9.08
2019-03-10T16:41:52.815Z,9.04
2019-03-10T16:44:24.775Z,9.03
2019-03-10T16:47:00.553Z,9.01
2019-03-10T16:49:32.616Z,8.94
2019-03-10T16:52:05.059Z,8.88
2019-03-10T16:54:37.058Z,8.85
2019-03-10T16:57:09.091Z,8.82
2019-03-10T16:59:41.023Z,8.76
2019-03-10T17:02:13.498Z,8.71
2019-03-10T17:04:45.703Z,8.67
2019-03-10T17:07:17.657Z,8.65
2019-03-10T17:09:49.903Z,8.65
2019-03-10T17:12:21.844Z,8.67
2019-03-10T17:14:54.131Z,8.69
2019-03-10T17:17:26.094Z,8.67
2019-03-10T17:19:58.076Z,8.63
2019-03-10T17:22:30.018Z,8.64
2019-03-10T17:25:05.039Z,8.64
2019-03-10T17:27:37.062Z,8.63
2019-03-10T17:30:22.836Z,8.62
2019-03-10T17:32:54.771Z,8.61
2019-03-10T17:35:27.032Z,8.60
2019-03-10T17:37:59.224Z,8.61
2019-03-10T17:40:31.211Z,8.60
2019-03-10T17:43:03.180Z,8.60
2019-03-10T17:45:35.197Z,8.57
2019-03-10T17:48:07.154Z,8.50
2019-03-10T17:50:39.465Z,8.49
2019-03-10T17:53:11.465Z,8.47
2019-03-10T17:55:43.436Z,8.48
2019-03-10T17:58:15.360Z,8.49
2019-03-10T18:00:47.353Z,8.47
2019-03-10T18:03:19.302Z,8.48
2019-03-10T18:05:51.312Z,8.51
2019-03-10T18:08:23.283Z,8.53
2019-03-10T18:10:55.517Z,8.52
2019-03-10T18:13:27.485Z,8.49
2019-03-10T18:15:59.453Z,8.48
2019-03-10T18:18:31.649Z,8.47
2019-03-10T18:21:03.634Z,8.45
2019-03-10T18:23:35.924Z,8.43
2019-03-10T18:26:09.743Z,8.43
2019-03-10T18:28:41.998Z,8.41
2019-03-10T18:31:14.265Z,8.39
2019-03-10T18:33:46.243Z,8.36
2019-03-10T18:36:18.179Z,8.38
2019-03-10T18:38:50.463Z,8.36
2019-03-10T18:41:22.409Z,8.35
2019-03-10T18:43:54.374Z,8.34
2019-03-10T18:46:26.303Z,8.29
2019-03-10T18:48:58.281Z,8.25
2019-03-10T18:51:30.243Z,8.26
2019-03-10T18:54:02.197Z,8.23
2019-03-10T18:56:34.251Z,8.20
2019-03-10T18:59:06.198Z,8.18
2019-03-10T19:01:38.169Z,8.13
2019-03-10T19:04:10.292Z,8.11
2019-03-10T19:06:42.229Z,8.11
2019-03-10T19:09:16.410Z,8.09
2019-03-10T19:11:48.255Z,8.08
2019-03-10T19:14:20.218Z,8.05
2019-03-10T19:16:52.224Z,7.99
2019-03-10T19:19:24.186Z,7.99
2019-03-10T19:21:56.411Z,7.97
2019-03-10T19:24:28.365Z,7.98
2019-03-10T19:27:00.336Z,8.01
2019-03-10T19:29:32.284Z,8.04
2019-03-10T19:32:04.315Z,8.02
2019-03-10T19:34:36.264Z,8.03
2019-03-10T19:37:08.208Z,8.04
2019-03-10T19:39:40.171Z,8.07
2019-03-10T19:42:12.215Z,8.09
2019-03-10T19:44:44.172Z,8.11
2019-03-10T19:47:16.129Z,8.08
2019-03-10T19:49:48.078Z,8.06
2019-03-10T19:52:20.383Z,8.02
2019-03-10T19:54:52.329Z,7.99
2019-03-10T19:57:24.294Z,7.99
2019-03-10T19:59:56.586Z,7.99
2019-03-10T20:02:28.612Z,7.94
2019-03-10T20:05:00.570Z,7.89
2019-03-10T20:07:32.527Z,7.85
2019-03-10T20:10:16.284Z,7.84
2019-03-10T20:12:48.272Z,7.81
2019-03-10T20:15:25.574Z,7.80
2019-03-10T20:17:57.781Z,7.78
2019-03-10T20:20:33.391Z,7.74
2019-03-10T20:23:05.813Z,7.71
2019-03-10T20:25:38.016Z,7.70
2019-03-10T20:28:09.980Z,7.68
2019-03-10T20:30:41.949Z,7.61
2019-03-10T20:33:15.073Z,7.58
2019-03-10T20:35:47.050Z,7.55
2019-03-10T20:38:18.979Z,7.51
2019-03-10T20:40:50.955Z,7.48
2019-03-10T20:43:22.873Z,7.48
2019-03-10T20:45:54.842Z,7.52
2019-03-10T20:48:27.109Z,7.53
2019-03-10T20:50:59.055Z,7.56
2019-03-10T20:53:31.034Z,7.54
2019-03-10T20:56:02.993Z,7.54
2019-03-10T20:58:35.162Z,7.54
2019-03-10T21:01:07.179Z,7.54
2019-03-10T21:03:39.129Z,7.52
2019-03-10T21:06:11.099Z,7.52
2019-03-10T21:08:43.150Z,7.53
2019-03-10T21:11:15.542Z,7.51
2019-03-10T21:13:47.811Z,7.49
2019-03-10T21:16:19.752Z,7.48
2019-03-10T21:18:51.761Z,7.49
2019-03-10T21:21:23.783Z,7.50
2019-03-10T21:23:55.710Z,7.47
2019-03-10T21:26:28.073Z,7.46
2019-03-10T21:29:00.032Z,7.46
2019-03-10T21:31:31.999Z,7.44
2019-03-10T21:34:03.969Z,7.42
2019-03-10T21:36:37.643Z,7.41
2019-03-10T21:39:09.690Z,7.38
2019-03-10T21:41:42.170Z,7.37
2019-03-10T21:44:14.376Z,7.35
2019-03-10T21:46:46.359Z,7.36
2019-03-10T21:49:18.390Z,7.36
2019-03-10T21:51:50.525Z,7.34
2019-03-10T21:54:22.942Z,7.34
2019-03-10T21:56:54.921Z,7.32
2019-03-10T21:59:26.883Z,7.28
2019-03-10T22:01:59.103Z,7.23
2019-03-10T22:04:31.030Z,7.17
2019-03-10T22:07:03.026Z,7.11
2019-03-10T22:09:35.166Z,7.10
2019-03-10T22:12:07.187Z,7.09
2019-03-10T22:14:39.445Z,7.10
2019-03-10T22:17:11.406Z,7.11
2019-03-10T22:19:43.331Z,7.11
2019-03-10T22:22:15.349Z,7.13
2019-03-10T22:24:47.322Z,7.14
2019-03-10T22:27:19.278Z,7.15
2019-03-10T22:29:51.249Z,7.17
2019-03-10T22:32:23.206Z,7.17
2019-03-10T22:34:55.174Z,7.15
2019-03-10T22:37:27.127Z,7.15
2019-03-10T22:39:59.148Z,7.16
2019-03-10T22:42:31.107Z,7.17
2019-03-10T22:45:03.101Z,7.15
2019-03-10T22:47:35.047Z,7.11
2019-03-10T22:50:14.538Z,7.11
2019-03-10T22:52:46.561Z,7.09
2019-03-10T22:55:18.536Z,7.09
2019-03-10T22:57:50.452Z,7.05
2019-03-10T23:00:31.263Z,7.03
2019-03-10T23:03:03.692Z,7.01
2019-03-10T23:05:35.627Z,6.96
2019-03-10T23:08:07.872Z,6.95
2019-03-10T23:10:40.252Z,6.93
2019-03-10T23:13:12.452Z,6.93
2019-03-10T23:15:44.399Z,6.90
2019-03-10T23:18:16.368Z,6.87
2019-03-10T23:20:48.359Z,6.85
2019-03-10T23:23:20.324Z,6.86
2019-03-10T23:25:52.324Z,6.82
2019-03-10T23:28:24.743Z,6.80
2019-03-10T23:30:56.711Z,6.79
2019-03-10T23:33:28.675Z,6.77
2019-03-10T23:36:00.612Z,6.76
2019-03-10T23:38:32.603Z,6.73
2019-03-10T23:41:04.593Z,6.71
2019-03-10T23:43:36.556Z,6.71
2019-03-10T23:46:08.508Z,6.69
2019-03-10T23:48:40.466Z,6.68
2019-03-10T23:51:12.428Z,6.64
2019-03-10T23:53:44.345Z,6.63
2019-03-10T23:56:16.317Z,6.61
2019-03-10T23:58:48.596Z,6.59
